sensor_id;sensor_type;location;lat;lon;timestamp;P1;durP1;ratioP1;P2;durP2;ratioP2
38865;SDS011;62686;48.984;8.394;2022-12-07T00:01:31;17.83;;;13.07;;
38865;SDS011;62686;48.984;8.394;2022-12-07T00:04:02;18.47;;;13.40;;
38865;SDS011;62686;48.984;8.394;2022-12-07T00:06:31;17.43;;;13.53;;
38865;SDS011;62686;48.984;8.394;2022-12-07T00:09:02;18.40;;;12.77;;
38865;SDS011;62686;48.984;8.394;2022-12-07T00:11:31;16.10;;;12.40;;
38865;SDS011;62686;48.984;8.394;2022-12-07T00:14:01;16.03;;;12.50;;
38865;SDS011;62686;48.984;8.394;2022-12-07T00:16:31;17.83;;;12.93;;
38865;SDS011;62686;48.984;8.394;2022-12-07T00:19:02;15.90;;;12.30;;
38865;SDS011;62686;48.984;8.394;2022-12-07T00:21:32;16.80;;;12.70;;
38865;SDS011;62686;48.984;8.394;2022-12-07T00:24:02;18.57;;;12.63;;
38865;SDS011;62686;48.984;8.394;2022-12-07T00:26:34;19.40;;;14.13;;
38865;SDS011;62686;48.984;8.394;2022-12-07T00:29:04;17.13;;;13.83;;
38865;SDS011;62686;48.984;8.394;2022-12-07T00:31:34;19.73;;;14.53;;
38865;SDS011;62686;48.984;8.394;2022-12-07T00:34:06;18.20;;;14.13;;
38865;SDS011;62686;48.984;8.394;2022-12-07T00:36:39;19.63;;;14.77;;
38865;SDS011;62686;48.984;8.394;2022-12-07T00:39:09;20.47;;;15.07;;
38865;SDS011;62686;48.984;8.394;2022-12-07T00:41:38;20.73;;;14.63;;
38865;SDS011;62686;48.984;8.394;2022-12-07T00:44:06;20.83;;;14.60;;
38865;SDS011;62686;48.984;8.394;2022-12-07T00:46:34;21.70;;;14.47;;
38865;SDS011;62686;48.984;8.394;2022-12-07T00:49:02;21.60;;;14.17;;
38865;SDS011;62686;48.984;8.394;2022-12-07T00:51:32;19.43;;;14.50;;
38865;SDS011;62686;48.984;8.394;2022-12-07T00:54:00;20.67;;;15.47;;
38865;SDS011;62686;48.984;8.394;2022-12-07T00:56:28;18.37;;;14.23;;
38865;SDS011;62686;48.984;8.394;2022-12-07T00:58:57;18.90;;;14.17;;
38865;SDS011;62686;48.984;8.394;2022-12-07T01:01:27;21.37;;;15.13;;
38865;SDS011;62686;48.984;8.394;2022-12-07T01:03:57;23.27;;;14.70;;
38865;SDS011;62686;48.984;8.394;2022-12-07T01:06:27;20.00;;;14.10;;
38865;SDS011;62686;48.984;8.394;2022-12-07T01:08:57;20.07;;;15.10;;
38865;SDS011;62686;48.984;8.394;2022-12-07T01:11:26;20.77;;;15.93;;
38865;SDS011;62686;48.984;8.394;2022-12-07T01:13:56;22.77;;;15.13;;
38865;SDS011;62686;48.984;8.394;2022-12-07T01:16:27;20.63;;;14.17;;
38865;SDS011;62686;48.984;8.394;2022-12-07T01:18:56;19.60;;;14.80;;
38865;SDS011;62686;48.984;8.394;2022-12-07T01:21:26;20.93;;;15.00;;
38865;SDS011;62686;48.984;8.394;2022-12-07T01:23:57;19.43;;;15.07;;
38865;SDS011;62686;48.984;8.394;2022-12-07T01:26:28;21.53;;;15.23;;
38865;SDS011;62686;48.984;8.394;2022-12-07T01:28:56;21.27;;;15.23;;
38865;SDS011;62686;48.984;8.394;2022-12-07T01:31:25;18.83;;;14.73;;
38865;SDS011;62686;48.984;8.394;2022-12-07T01:33:55;23.77;;;15.00;;
38865;SDS011;62686;48.984;8.394;2022-12-07T01:36:28;21.90;;;15.80;;
38865;SDS011;62686;48.984;8.394;2022-12-07T01:38:59;23.80;;;15.87;;
38865;SDS011;62686;48.984;8.394;2022-12-07T01:41:30;23.17;;;16.53;;
38865;SDS011;62686;48.984;8.394;2022-12-07T01:44:08;24.23;;;17.00;;
38865;SDS011;62686;48.984;8.394;2022-12-07T01:46:39;24.33;;;16.77;;
38865;SDS011;62686;48.984;8.394;2022-12-07T01:49:10;24.27;;;17.07;;
38865;SDS011;62686;48.984;8.394;2022-12-07T01:51:43;18.70;;;14.97;;
38865;SDS011;62686;48.984;8.394;2022-12-07T01:54:14;22.20;;;16.03;;
38865;SDS011;62686;48.984;8.394;2022-12-07T01:56:45;25.43;;;16.87;;
38865;SDS011;62686;48.984;8.394;2022-12-07T01:59:18;20.90;;;16.10;;
38865;SDS011;62686;48.984;8.394;2022-12-07T02:01:49;21.70;;;16.67;;
38865;SDS011;62686;48.984;8.394;2022-12-07T02:04:17;21.70;;;16.90;;
38865;SDS011;62686;48.984;8.394;2022-12-07T02:06:46;25.20;;;16.90;;
38865;SDS011;62686;48.984;8.394;2022-12-07T02:09:17;23.80;;;16.77;;
38865;SDS011;62686;48.984;8.394;2022-12-07T02:11:45;23.87;;;15.47;;
38865;SDS011;62686;48.984;8.394;2022-12-07T02:14:13;23.07;;;16.90;;
38865;SDS011;62686;48.984;8.394;2022-12-07T02:16:44;24.40;;;17.40;;
38865;SDS011;62686;48.984;8.394;2022-12-07T02:22:33;27.37;;;18.07;;
38865;SDS011;62686;48.984;8.394;2022-12-07T02:25:22;26.50;;;17.40;;
38865;SDS011;62686;48.984;8.394;2022-12-07T02:28:01;24.00;;;17.33;;
38865;SDS011;62686;48.984;8.394;2022-12-07T02:30:35;25.57;;;16.60;;
38865;SDS011;62686;48.984;8.394;2022-12-07T02:33:11;25.63;;;17.57;;
38865;SDS011;62686;48.984;8.394;2022-12-07T02:35:44;26.47;;;18.07;;
38865;SDS011;62686;48.984;8.394;2022-12-07T02:38:18;27.70;;;17.57;;
38865;SDS011;62686;48.984;8.394;2022-12-07T02:40:51;26.27;;;18.40;;
38865;SDS011;62686;48.984;8.394;2022-12-07T02:43:23;26.60;;;17.17;;
38865;SDS011;62686;48.984;8.394;2022-12-07T02:45:55;25.30;;;17.73;;
38865;SDS011;62686;48.984;8.394;2022-12-07T02:48:28;27.33;;;18.57;;
38865;SDS011;62686;48.984;8.394;2022-12-07T02:51:01;24.80;;;17.47;;
38865;SDS011;62686;48.984;8.394;2022-12-07T02:53:33;27.63;;;18.50;;
38865;SDS011;62686;48.984;8.394;2022-12-07T02:56:06;29.20;;;18.57;;
38865;SDS011;62686;48.984;8.394;2022-12-07T02:58:43;25.83;;;18.93;;
38865;SDS011;62686;48.984;8.394;2022-12-07T03:01:25;26.03;;;17.73;;
38865;SDS011;62686;48.984;8.394;2022-12-07T03:03:58;25.47;;;17.73;;
38865;SDS011;62686;48.984;8.394;2022-12-07T03:06:36;27.20;;;18.67;;
38865;SDS011;62686;48.984;8.394;2022-12-07T03:09:12;26.97;;;18.57;;
38865;SDS011;62686;48.984;8.394;2022-12-07T03:11:50;31.03;;;18.97;;
38865;SDS011;62686;48.984;8.394;2022-12-07T03:14:28;26.63;;;18.47;;
38865;SDS011;62686;48.984;8.394;2022-12-07T03:17:01;25.03;;;17.23;;
38865;SDS011;62686;48.984;8.394;2022-12-07T03:19:33;25.60;;;17.73;;
38865;SDS011;62686;48.984;8.394;2022-12-07T03:22:02;25.73;;;17.20;;
38865;SDS011;62686;48.984;8.394;2022-12-07T03:24:37;26.67;;;18.47;;
38865;SDS011;62686;48.984;8.394;2022-12-07T03:27:10;29.23;;;17.90;;
38865;SDS011;62686;48.984;8.394;2022-12-07T03:29:44;23.83;;;17.33;;
38865;SDS011;62686;48.984;8.394;2022-12-07T03:32:29;27.07;;;17.97;;
38865;SDS011;62686;48.984;8.394;2022-12-07T03:35:02;30.60;;;17.27;;
38865;SDS011;62686;48.984;8.394;2022-12-07T03:37:36;24.63;;;17.80;;
38865;SDS011;62686;48.984;8.394;2022-12-07T03:40:11;26.73;;;17.87;;
38865;SDS011;62686;48.984;8.394;2022-12-07T03:42:44;26.70;;;17.40;;
38865;SDS011;62686;48.984;8.394;2022-12-07T03:45:13;22.10;;;15.40;;
38865;SDS011;62686;48.984;8.394;2022-12-07T03:47:45;25.67;;;17.10;;
38865;SDS011;62686;48.984;8.394;2022-12-07T03:50:21;23.30;;;16.33;;
38865;SDS011;62686;48.984;8.394;2022-12-07T03:52:53;22.70;;;16.47;;
38865;SDS011;62686;48.984;8.394;2022-12-07T03:55:24;25.67;;;18.63;;
38865;SDS011;62686;48.984;8.394;2022-12-07T03:57:56;29.17;;;18.17;;
38865;SDS011;62686;48.984;8.394;2022-12-07T04:00:27;25.93;;;18.30;;
38865;SDS011;62686;48.984;8.394;2022-12-07T04:02:57;32.13;;;19.40;;
38865;SDS011;62686;48.984;8.394;2022-12-07T04:05:25;26.73;;;18.97;;
38865;SDS011;62686;48.984;8.394;2022-12-07T04:07:53;28.97;;;19.63;;
38865;SDS011;62686;48.984;8.394;2022-12-07T04:10:21;29.37;;;20.13;;
38865;SDS011;62686;48.984;8.394;2022-12-07T04:12:49;31.67;;;19.73;;
38865;SDS011;62686;48.984;8.394;2022-12-07T04:15:17;29.67;;;19.93;;
38865;SDS011;62686;48.984;8.394;2022-12-07T04:17:45;31.87;;;20.07;;
38865;SDS011;62686;48.984;8.394;2022-12-07T04:20:15;26.97;;;20.20;;
38865;SDS011;62686;48.984;8.394;2022-12-07T04:22:43;33.67;;;20.57;;
38865;SDS011;62686;48.984;8.394;2022-12-07T04:25:11;28.80;;;19.77;;
38865;SDS011;62686;48.984;8.394;2022-12-07T04:27:39;31.60;;;20.50;;
38865;SDS011;62686;48.984;8.394;2022-12-07T04:30:07;32.07;;;20.10;;
38865;SDS011;62686;48.984;8.394;2022-12-07T04:32:36;31.57;;;20.23;;
38865;SDS011;62686;48.984;8.394;2022-12-07T04:35:04;30.50;;;20.90;;
38865;SDS011;62686;48.984;8.394;2022-12-07T04:37:34;32.50;;;21.80;;
38865;SDS011;62686;48.984;8.394;2022-12-07T04:40:02;30.17;;;20.23;;
38865;SDS011;62686;48.984;8.394;2022-12-07T04:42:31;31.90;;;20.30;;
38865;SDS011;62686;48.984;8.394;2022-12-07T04:44:59;30.97;;;20.20;;
38865;SDS011;62686;48.984;8.394;2022-12-07T04:47:27;31.43;;;19.40;;
38865;SDS011;62686;48.984;8.394;2022-12-07T04:49:55;27.80;;;19.53;;
38865;SDS011;62686;48.984;8.394;2022-12-07T04:52:23;29.50;;;19.83;;
38865;SDS011;62686;48.984;8.394;2022-12-07T04:54:52;25.43;;;18.83;;
38865;SDS011;62686;48.984;8.394;2022-12-07T04:57:20;29.97;;;19.03;;
38865;SDS011;62686;48.984;8.394;2022-12-07T04:59:48;26.23;;;18.23;;
38865;SDS011;62686;48.984;8.394;2022-12-07T05:02:16;26.50;;;18.57;;
38865;SDS011;62686;48.984;8.394;2022-12-07T05:04:44;29.30;;;19.73;;
38865;SDS011;62686;48.984;8.394;2022-12-07T05:07:14;34.83;;;18.37;;
38865;SDS011;62686;48.984;8.394;2022-12-07T05:09:42;25.13;;;18.10;;
38865;SDS011;62686;48.984;8.394;2022-12-07T05:12:11;28.63;;;18.90;;
38865;SDS011;62686;48.984;8.394;2022-12-07T05:14:39;28.57;;;19.60;;
38865;SDS011;62686;48.984;8.394;2022-12-07T05:17:07;27.37;;;19.23;;
38865;SDS011;62686;48.984;8.394;2022-12-07T05:19:37;29.40;;;19.93;;
38865;SDS011;62686;48.984;8.394;2022-12-07T05:22:08;28.67;;;20.17;;
38865;SDS011;62686;48.984;8.394;2022-12-07T05:24:37;26.60;;;19.70;;
38865;SDS011;62686;48.984;8.394;2022-12-07T05:27:06;32.67;;;21.90;;
38865;SDS011;62686;48.984;8.394;2022-12-07T05:29:36;27.83;;;19.63;;
38865;SDS011;62686;48.984;8.394;2022-12-07T05:32:04;28.80;;;19.03;;
38865;SDS011;62686;48.984;8.394;2022-12-07T05:34:32;30.27;;;21.30;;
38865;SDS011;62686;48.984;8.394;2022-12-07T05:37:00;26.63;;;18.10;;
38865;SDS011;62686;48.984;8.394;2022-12-07T05:39:28;24.30;;;17.37;;
38865;SDS011;62686;48.984;8.394;2022-12-07T05:41:56;25.47;;;18.63;;
38865;SDS011;62686;48.984;8.394;2022-12-07T05:44:46;23.27;;;17.13;;
38865;SDS011;62686;48.984;8.394;2022-12-07T05:47:15;22.87;;;17.23;;
38865;SDS011;62686;48.984;8.394;2022-12-07T05:49:43;22.77;;;17.13;;
38865;SDS011;62686;48.984;8.394;2022-12-07T05:52:12;21.80;;;16.87;;
38865;SDS011;62686;48.984;8.394;2022-12-07T05:54:40;34.47;;;23.33;;
38865;SDS011;62686;48.984;8.394;2022-12-07T05:57:08;24.23;;;17.90;;
38865;SDS011;62686;48.984;8.394;2022-12-07T05:59:37;25.70;;;17.80;;
38865;SDS011;62686;48.984;8.394;2022-12-07T06:02:06;23.30;;;17.07;;
38865;SDS011;62686;48.984;8.394;2022-12-07T06:04:40;22.87;;;16.47;;
38865;SDS011;62686;48.984;8.394;2022-12-07T06:07:09;28.23;;;21.23;;
38865;SDS011;62686;48.984;8.394;2022-12-07T06:09:38;22.63;;;17.13;;
38865;SDS011;62686;48.984;8.394;2022-12-07T06:12:08;21.53;;;16.10;;
38865;SDS011;62686;48.984;8.394;2022-12-07T06:14:54;22.30;;;16.03;;
38865;SDS011;62686;48.984;8.394;2022-12-07T06:17:23;22.10;;;15.33;;
38865;SDS011;62686;48.984;8.394;2022-12-07T06:19:52;21.50;;;15.50;;
38865;SDS011;62686;48.984;8.394;2022-12-07T06:22:20;21.73;;;16.10;;
38865;SDS011;62686;48.984;8.394;2022-12-07T06:24:48;20.83;;;15.67;;
38865;SDS011;62686;48.984;8.394;2022-12-07T06:27:16;20.57;;;15.50;;
38865;SDS011;62686;48.984;8.394;2022-12-07T06:29:44;21.00;;;15.43;;
38865;SDS011;62686;48.984;8.394;2022-12-07T06:32:12;18.10;;;13.67;;
38865;SDS011;62686;48.984;8.394;2022-12-07T06:34:42;27.03;;;17.73;;
38865;SDS011;62686;48.984;8.394;2022-12-07T06:37:11;33.33;;;19.97;;
38865;SDS011;62686;48.984;8.394;2022-12-07T06:39:39;35.27;;;19.83;;
38865;SDS011;62686;48.984;8.394;2022-12-07T06:42:08;49.50;;;23.33;;
38865;SDS011;62686;48.984;8.394;2022-12-07T06:44:36;25.93;;;17.57;;
38865;SDS011;62686;48.984;8.394;2022-12-07T06:47:04;26.67;;;17.63;;
38865;SDS011;62686;48.984;8.394;2022-12-07T06:49:55;27.93;;;17.87;;
38865;SDS011;62686;48.984;8.394;2022-12-07T06:52:23;25.07;;;15.90;;
38865;SDS011;62686;48.984;8.394;2022-12-07T06:54:51;27.13;;;17.97;;
38865;SDS011;62686;48.984;8.394;2022-12-07T06:57:19;34.60;;;20.00;;
38865;SDS011;62686;48.984;8.394;2022-12-07T06:59:47;25.13;;;17.20;;
38865;SDS011;62686;48.984;8.394;2022-12-07T07:02:15;40.53;;;22.87;;
38865;SDS011;62686;48.984;8.394;2022-12-07T07:04:44;38.27;;;23.33;;
38865;SDS011;62686;48.984;8.394;2022-12-07T07:07:13;27.83;;;18.47;;
38865;SDS011;62686;48.984;8.394;2022-12-07T07:09:41;30.80;;;19.63;;
38865;SDS011;62686;48.984;8.394;2022-12-07T07:12:09;24.90;;;15.23;;
38865;SDS011;62686;48.984;8.394;2022-12-07T07:14:37;31.47;;;20.03;;
38865;SDS011;62686;48.984;8.394;2022-12-07T07:17:05;27.03;;;18.17;;
38865;SDS011;62686;48.984;8.394;2022-12-07T07:19:33;21.80;;;15.37;;
38865;SDS011;62686;48.984;8.394;2022-12-07T07:22:02;27.77;;;17.80;;
38865;SDS011;62686;48.984;8.394;2022-12-07T07:24:32;20.67;;;15.33;;
38865;SDS011;62686;48.984;8.394;2022-12-07T07:27:00;18.73;;;13.60;;
38865;SDS011;62686;48.984;8.394;2022-12-07T07:29:28;23.47;;;15.80;;
38865;SDS011;62686;48.984;8.394;2022-12-07T07:31:56;25.80;;;16.37;;
38865;SDS011;62686;48.984;8.394;2022-12-07T07:34:27;21.87;;;15.17;;
38865;SDS011;62686;48.984;8.394;2022-12-07T07:36:55;22.40;;;14.73;;
38865;SDS011;62686;48.984;8.394;2022-12-07T07:39:23;19.10;;;13.40;;
38865;SDS011;62686;48.984;8.394;2022-12-07T07:41:52;20.13;;;14.60;;
38865;SDS011;62686;48.984;8.394;2022-12-07T07:44:22;21.23;;;15.00;;
38865;SDS011;62686;48.984;8.394;2022-12-07T07:46:54;20.27;;;14.17;;
38865;SDS011;62686;48.984;8.394;2022-12-07T07:49:22;18.03;;;13.03;;
38865;SDS011;62686;48.984;8.394;2022-12-07T07:51:50;20.53;;;15.60;;
38865;SDS011;62686;48.984;8.394;2022-12-07T07:54:18;19.83;;;13.87;;
38865;SDS011;62686;48.984;8.394;2022-12-07T07:56:46;17.90;;;13.53;;
38865;SDS011;62686;48.984;8.394;2022-12-07T07:59:15;15.60;;;12.33;;
38865;SDS011;62686;48.984;8.394;2022-12-07T08:01:46;16.50;;;11.97;;
38865;SDS011;62686;48.984;8.394;2022-12-07T08:04:14;19.00;;;12.80;;
38865;SDS011;62686;48.984;8.394;2022-12-07T08:06:42;18.37;;;11.97;;
38865;SDS011;62686;48.984;8.394;2022-12-07T08:09:10;14.60;;;11.50;;
38865;SDS011;62686;48.984;8.394;2022-12-07T08:11:39;13.10;;;10.27;;
38865;SDS011;62686;48.984;8.394;2022-12-07T08:14:07;12.77;;;9.93;;
38865;SDS011;62686;48.984;8.394;2022-12-07T08:16:36;14.33;;;11.03;;
38865;SDS011;62686;48.984;8.394;2022-12-07T08:19:08;13.23;;;9.60;;
38865;SDS011;62686;48.984;8.394;2022-12-07T08:21:36;15.53;;;10.03;;
38865;SDS011;62686;48.984;8.394;2022-12-07T08:24:06;13.70;;;9.90;;
38865;SDS011;62686;48.984;8.394;2022-12-07T08:26:34;14.40;;;10.33;;
38865;SDS011;62686;48.984;8.394;2022-12-07T08:29:03;14.80;;;10.27;;
38865;SDS011;62686;48.984;8.394;2022-12-07T08:31:31;15.07;;;9.23;;
38865;SDS011;62686;48.984;8.394;2022-12-07T08:34:00;12.83;;;9.70;;
38865;SDS011;62686;48.984;8.394;2022-12-07T08:36:28;12.03;;;9.60;;
38865;SDS011;62686;48.984;8.394;2022-12-07T08:38:58;12.77;;;9.87;;
38865;SDS011;62686;48.984;8.394;2022-12-07T08:41:46;13.97;;;9.33;;
38865;SDS011;62686;48.984;8.394;2022-12-07T08:44:14;12.13;;;9.50;;
38865;SDS011;62686;48.984;8.394;2022-12-07T08:46:43;12.17;;;9.40;;
38865;SDS011;62686;48.984;8.394;2022-12-07T08:49:16;12.67;;;9.60;;
38865;SDS011;62686;48.984;8.394;2022-12-07T08:51:47;11.83;;;8.73;;
38865;SDS011;62686;48.984;8.394;2022-12-07T08:54:16;14.63;;;10.33;;
38865;SDS011;62686;48.984;8.394;2022-12-07T08:56:45;12.57;;;9.10;;
38865;SDS011;62686;48.984;8.394;2022-12-07T08:59:17;12.60;;;8.53;;
38865;SDS011;62686;48.984;8.394;2022-12-07T09:01:46;12.63;;;8.90;;
38865;SDS011;62686;48.984;8.394;2022-12-07T09:04:14;11.73;;;9.07;;
38865;SDS011;62686;48.984;8.394;2022-12-07T09:06:44;12.13;;;9.47;;
38865;SDS011;62686;48.984;8.394;2022-12-07T09:09:12;11.97;;;9.10;;
38865;SDS011;62686;48.984;8.394;2022-12-07T09:11:41;12.30;;;9.53;;
38865;SDS011;62686;48.984;8.394;2022-12-07T09:14:11;13.50;;;9.60;;
38865;SDS011;62686;48.984;8.394;2022-12-07T09:16:39;15.03;;;10.43;;
38865;SDS011;62686;48.984;8.394;2022-12-07T09:19:08;13.33;;;9.10;;
38865;SDS011;62686;48.984;8.394;2022-12-07T09:21:36;19.03;;;9.80;;
38865;SDS011;62686;48.984;8.394;2022-12-07T09:24:05;13.17;;;9.13;;
38865;SDS011;62686;48.984;8.394;2022-12-07T09:26:35;13.57;;;8.57;;
38865;SDS011;62686;48.984;8.394;2022-12-07T09:29:05;10.27;;;8.60;;
38865;SDS011;62686;48.984;8.394;2022-12-07T09:31:35;12.63;;;8.60;;
38865;SDS011;62686;48.984;8.394;2022-12-07T09:34:04;9.80;;;8.23;;
38865;SDS011;62686;48.984;8.394;2022-12-07T09:36:33;10.67;;;8.33;;
38865;SDS011;62686;48.984;8.394;2022-12-07T09:39:01;10.17;;;7.80;;
38865;SDS011;62686;48.984;8.394;2022-12-07T09:41:34;9.67;;;7.83;;
38865;SDS011;62686;48.984;8.394;2022-12-07T09:44:06;11.80;;;8.30;;
38865;SDS011;62686;48.984;8.394;2022-12-07T09:46:40;9.83;;;7.93;;
38865;SDS011;62686;48.984;8.394;2022-12-07T09:49:10;14.20;;;8.10;;
38865;SDS011;62686;48.984;8.394;2022-12-07T09:51:41;9.93;;;7.77;;
38865;SDS011;62686;48.984;8.394;2022-12-07T09:54:11;11.00;;;8.13;;
38865;SDS011;62686;48.984;8.394;2022-12-07T09:56:42;12.90;;;8.77;;
38865;SDS011;62686;48.984;8.394;2022-12-07T09:59:13;11.70;;;8.33;;
38865;SDS011;62686;48.984;8.394;2022-12-07T10:01:47;13.03;;;8.30;;
38865;SDS011;62686;48.984;8.394;2022-12-07T10:04:17;10.57;;;7.87;;
38865;SDS011;62686;48.984;8.394;2022-12-07T10:06:47;9.50;;;7.40;;
38865;SDS011;62686;48.984;8.394;2022-12-07T10:09:17;10.77;;;8.70;;
38865;SDS011;62686;48.984;8.394;2022-12-07T10:12:01;13.37;;;8.87;;
38865;SDS011;62686;48.984;8.394;2022-12-07T10:14:33;9.73;;;7.47;;
38865;SDS011;62686;48.984;8.394;2022-12-07T10:17:29;11.97;;;7.37;;
38865;SDS011;62686;48.984;8.394;2022-12-07T10:20:13;10.27;;;7.80;;
38865;SDS011;62686;48.984;8.394;2022-12-07T10:22:53;10.40;;;7.93;;
38865;SDS011;62686;48.984;8.394;2022-12-07T10:25:25;10.90;;;7.60;;
38865;SDS011;62686;48.984;8.394;2022-12-07T10:28:03;10.27;;;7.50;;
38865;SDS011;62686;48.984;8.394;2022-12-07T10:30:46;9.87;;;7.67;;
38865;SDS011;62686;48.984;8.394;2022-12-07T10:38:51;9.80;;;7.37;;
38865;SDS011;62686;48.984;8.394;2022-12-07T10:41:20;12.20;;;7.50;;
38865;SDS011;62686;48.984;8.394;2022-12-07T10:43:50;13.93;;;7.70;;
38865;SDS011;62686;48.984;8.394;2022-12-07T10:46:34;10.67;;;8.07;;
38865;SDS011;62686;48.984;8.394;2022-12-07T10:49:47;13.40;;;7.87;;
38865;SDS011;62686;48.984;8.394;2022-12-07T10:55:25;11.50;;;8.70;;
38865;SDS011;62686;48.984;8.394;2022-12-07T10:58:05;11.10;;;8.00;;
38865;SDS011;62686;48.984;8.394;2022-12-07T11:00:50;11.53;;;8.30;;
38865;SDS011;62686;48.984;8.394;2022-12-07T11:03:31;11.73;;;8.00;;
38865;SDS011;62686;48.984;8.394;2022-12-07T11:06:12;10.90;;;8.30;;
38865;SDS011;62686;48.984;8.394;2022-12-07T11:08:56;10.07;;;8.03;;
38865;SDS011;62686;48.984;8.394;2022-12-07T11:11:31;12.87;;;8.70;;
38865;SDS011;62686;48.984;8.394;2022-12-07T11:14:05;11.77;;;8.63;;
38865;SDS011;62686;48.984;8.394;2022-12-07T11:16:51;11.73;;;8.07;;
38865;SDS011;62686;48.984;8.394;2022-12-07T11:22:19;12.67;;;9.10;;
38865;SDS011;62686;48.984;8.394;2022-12-07T11:24:55;10.17;;;7.87;;
38865;SDS011;62686;48.984;8.394;2022-12-07T11:27:32;12.27;;;9.23;;
38865;SDS011;62686;48.984;8.394;2022-12-07T11:30:10;11.87;;;9.63;;
38865;SDS011;62686;48.984;8.394;2022-12-07T11:32:49;11.63;;;9.43;;
38865;SDS011;62686;48.984;8.394;2022-12-07T11:35:34;11.93;;;8.97;;
38865;SDS011;62686;48.984;8.394;2022-12-07T11:38:11;14.87;;;9.30;;
38865;SDS011;62686;48.984;8.394;2022-12-07T11:40:43;13.50;;;9.07;;
38865;SDS011;62686;48.984;8.394;2022-12-07T11:43:18;14.97;;;9.30;;
38865;SDS011;62686;48.984;8.394;2022-12-07T11:45:52;13.80;;;9.93;;
38865;SDS011;62686;48.984;8.394;2022-12-07T11:48:30;14.33;;;9.83;;
38865;SDS011;62686;48.984;8.394;2022-12-07T11:51:02;12.87;;;9.03;;
38865;SDS011;62686;48.984;8.394;2022-12-07T11:53:35;10.90;;;8.70;;
38865;SDS011;62686;48.984;8.394;2022-12-07T11:56:08;14.93;;;9.40;;
38865;SDS011;62686;48.984;8.394;2022-12-07T11:58:44;14.07;;;9.60;;
38865;SDS011;62686;48.984;8.394;2022-12-07T12:01:21;13.43;;;10.33;;
38865;SDS011;62686;48.984;8.394;2022-12-07T12:04:04;13.50;;;10.30;;
38865;SDS011;62686;48.984;8.394;2022-12-07T12:06:41;15.73;;;10.67;;
38865;SDS011;62686;48.984;8.394;2022-12-07T12:09:11;14.47;;;10.43;;
38865;SDS011;62686;48.984;8.394;2022-12-07T12:12:05;13.57;;;9.67;;
38865;SDS011;62686;48.984;8.394;2022-12-07T12:15:18;17.47;;;10.37;;
38865;SDS011;62686;48.984;8.394;2022-12-07T12:18:13;14.53;;;10.93;;
38865;SDS011;62686;48.984;8.394;2022-12-07T12:21:00;15.10;;;10.60;;
38865;SDS011;62686;48.984;8.394;2022-12-07T12:23:35;14.67;;;10.27;;
38865;SDS011;62686;48.984;8.394;2022-12-07T12:26:07;14.73;;;10.57;;
38865;SDS011;62686;48.984;8.394;2022-12-07T12:28:49;13.60;;;10.70;;
38865;SDS011;62686;48.984;8.394;2022-12-07T12:31:34;14.77;;;10.87;;
38865;SDS011;62686;48.984;8.394;2022-12-07T12:36:59;14.17;;;10.43;;
38865;SDS011;62686;48.984;8.394;2022-12-07T12:39:27;14.73;;;10.23;;
38865;SDS011;62686;48.984;8.394;2022-12-07T12:41:59;14.43;;;10.43;;
38865;SDS011;62686;48.984;8.394;2022-12-07T12:44:40;15.27;;;10.60;;
38865;SDS011;62686;48.984;8.394;2022-12-07T12:50:15;15.77;;;10.90;;
38865;SDS011;62686;48.984;8.394;2022-12-07T12:52:49;16.93;;;11.37;;
38865;SDS011;62686;48.984;8.394;2022-12-07T12:55:45;13.27;;;11.03;;
38865;SDS011;62686;48.984;8.394;2022-12-07T12:58:41;15.57;;;10.73;;
38865;SDS011;62686;48.984;8.394;2022-12-07T13:04:17;15.13;;;10.73;;
38865;SDS011;62686;48.984;8.394;2022-12-07T13:06:53;15.53;;;10.67;;
38865;SDS011;62686;48.984;8.394;2022-12-07T13:09:24;13.93;;;10.63;;
38865;SDS011;62686;48.984;8.394;2022-12-07T13:11:55;15.87;;;11.20;;
38865;SDS011;62686;48.984;8.394;2022-12-07T13:20:41;15.30;;;11.63;;
38865;SDS011;62686;48.984;8.394;2022-12-07T13:23:12;16.00;;;11.63;;
38865;SDS011;62686;48.984;8.394;2022-12-07T13:25:48;16.10;;;10.77;;
38865;SDS011;62686;48.984;8.394;2022-12-07T13:28:33;15.17;;;11.67;;
38865;SDS011;62686;48.984;8.394;2022-12-07T13:34:01;16.17;;;11.63;;
38865;SDS011;62686;48.984;8.394;2022-12-07T13:36:31;15.03;;;11.47;;
38865;SDS011;62686;48.984;8.394;2022-12-07T13:39:17;20.00;;;12.00;;
38865;SDS011;62686;48.984;8.394;2022-12-07T13:41:50;15.63;;;11.23;;
38865;SDS011;62686;48.984;8.394;2022-12-07T13:44:20;17.33;;;10.83;;
38865;SDS011;62686;48.984;8.394;2022-12-07T13:46:50;16.50;;;11.00;;
38865;SDS011;62686;48.984;8.394;2022-12-07T13:49:23;16.63;;;11.60;;
38865;SDS011;62686;48.984;8.394;2022-12-07T13:51:53;14.20;;;10.43;;
38865;SDS011;62686;48.984;8.394;2022-12-07T13:54:22;18.47;;;10.90;;
38865;SDS011;62686;48.984;8.394;2022-12-07T13:56:54;16.10;;;10.90;;
38865;SDS011;62686;48.984;8.394;2022-12-07T13:59:22;13.00;;;10.27;;
38865;SDS011;62686;48.984;8.394;2022-12-07T14:01:53;12.47;;;8.93;;
38865;SDS011;62686;48.984;8.394;2022-12-07T14:04:30;12.27;;;9.37;;
38865;SDS011;62686;48.984;8.394;2022-12-07T14:07:00;15.07;;;10.10;;
38865;SDS011;62686;48.984;8.394;2022-12-07T14:09:53;12.90;;;9.17;;
38865;SDS011;62686;48.984;8.394;2022-12-07T14:12:24;12.43;;;9.27;;
38865;SDS011;62686;48.984;8.394;2022-12-07T14:14:54;12.03;;;8.53;;
38865;SDS011;62686;48.984;8.394;2022-12-07T14:17:24;11.00;;;8.47;;
38865;SDS011;62686;48.984;8.394;2022-12-07T14:19:54;11.17;;;8.10;;
38865;SDS011;62686;48.984;8.394;2022-12-07T14:22:27;13.10;;;9.17;;
38865;SDS011;62686;48.984;8.394;2022-12-07T14:24:58;11.40;;;8.17;;
38865;SDS011;62686;48.984;8.394;2022-12-07T14:27:48;10.43;;;8.53;;
38865;SDS011;62686;48.984;8.394;2022-12-07T14:30:25;13.07;;;9.43;;
38865;SDS011;62686;48.984;8.394;2022-12-07T14:32:57;14.17;;;9.97;;
38865;SDS011;62686;48.984;8.394;2022-12-07T14:35:30;11.50;;;8.23;;
38865;SDS011;62686;48.984;8.394;2022-12-07T14:37:59;11.23;;;7.97;;
38865;SDS011;62686;48.984;8.394;2022-12-07T14:40:28;10.83;;;7.93;;
38865;SDS011;62686;48.984;8.394;2022-12-07T14:42:59;11.17;;;7.90;;
38865;SDS011;62686;48.984;8.394;2022-12-07T14:45:30;10.23;;;7.43;;
38865;SDS011;62686;48.984;8.394;2022-12-07T14:47:58;10.10;;;7.37;;
38865;SDS011;62686;48.984;8.394;2022-12-07T14:50:48;8.60;;;7.10;;
38865;SDS011;62686;48.984;8.394;2022-12-07T14:53:39;9.73;;;7.40;;
38865;SDS011;62686;48.984;8.394;2022-12-07T14:56:09;11.57;;;7.97;;
38865;SDS011;62686;48.984;8.394;2022-12-07T14:58:38;9.73;;;7.90;;
38865;SDS011;62686;48.984;8.394;2022-12-07T15:01:07;8.70;;;6.90;;
38865;SDS011;62686;48.984;8.394;2022-12-07T15:03:35;10.23;;;7.30;;
38865;SDS011;62686;48.984;8.394;2022-12-07T15:06:04;10.30;;;7.77;;
38865;SDS011;62686;48.984;8.394;2022-12-07T15:08:33;9.23;;;7.50;;
38865;SDS011;62686;48.984;8.394;2022-12-07T15:11:01;10.20;;;7.67;;
38865;SDS011;62686;48.984;8.394;2022-12-07T15:13:29;10.97;;;8.17;;
38865;SDS011;62686;48.984;8.394;2022-12-07T15:16:16;11.23;;;8.10;;
38865;SDS011;62686;48.984;8.394;2022-12-07T15:18:47;10.93;;;8.40;;
38865;SDS011;62686;48.984;8.394;2022-12-07T15:21:30;10.83;;;8.57;;
38865;SDS011;62686;48.984;8.394;2022-12-07T15:23:58;11.33;;;8.97;;
38865;SDS011;62686;48.984;8.394;2022-12-07T15:26:26;12.27;;;9.70;;
38865;SDS011;62686;48.984;8.394;2022-12-07T15:28:54;13.10;;;10.33;;